Flight Track Log - Related Links

Times and Time Zones

All times are in EDT time to prevent confusion due to time zone crossing. See the UAL527 flight status page for this flight to view local times or setup timezone preferences in your user account.

Time Position Orientation Groundspeed Altitude Reporting Facility
EDT Latitude Longitude Course Direction KTS MPH feet Rate Location/Type
Sat 10:20:44 AM 33.6500 -117.8833 40° Northeast 124 143 1,600  Level Southern California TRACON
Sat 10:21:45 AM 33.6167 -117.9000 203° Southwest 134 154 3,100 1,321 Climbing Southern California TRACON
Sat 10:22:33 AM 33.5722 -117.9047 185° South 196 226 4,000 2,182 Climbing Los Angeles Center
Sat 10:23:00 AM 33.6170 -117.9927 350° North  Level FlightAware Approximate
Sat 10:23:35 AM 33.5169 -117.9497 214° Southwest 257 296 7,100  Level Los Angeles Center
Sat 10:24:00 AM 33.7358 -118.0368 340° North  Level FlightAware Approximate
Sat 10:24:36 AM 33.5139 -118.0436 268° West 279 321 10,100  Level Los Angeles Center
Sat 10:25:00 AM 33.8412 -117.9921 40° Northeast  Level FlightAware Approximate
Sat 10:25:37 AM 33.5622 -118.1000 316° Northwest 303 349 12,200  Level Los Angeles Center
Sat 10:26:39 AM 33.6811 -118.0783 North 372 428 14,100 2,032 Climbing Los Angeles Center
Sat 10:27:41 AM 33.7881 -118.0494 13° North 396 456 16,400 2,195 Climbing Los Angeles Center
Sat 10:28:42 AM 33.8811 -117.9644 37° Northeast 421 484 18,600 2,293 Climbing Los Angeles Center
Sat 10:29:44 AM 33.9969 -117.8619 36° Northeast 432 497 21,100 2,341 Climbing Los Angeles Center
Sat 10:30:45 AM 34.0939 -117.7700 38° Northeast 441 507 23,400 2,000 Climbing Los Angeles Center
Sat 10:31:47 AM 34.1750 -117.6572 49° Northeast 446 513 25,200 1,548 Climbing Los Angeles Center
Sat 10:32:49 AM 34.2614 -117.5400 48° Northeast 464 534 26,600 1,366 Climbing Los Angeles Center
Sat 10:33:50 AM 34.3497 -117.4200 48° Northeast 475 547 28,000 1,279 Climbing Los Angeles Center
Sat 10:34:51 AM 34.4264 -117.3150 48° Northeast 490 564 29,200 1,268 Climbing Los Angeles Center
Sat 10:35:53 AM 34.5375 -117.1633 48° Northeast 504 580 30,600 1,161 Climbing Los Angeles Center
Sat 10:36:55 AM 34.6325 -117.0314 49° Northeast 519 597 31,600 1,415 Climbing Los Angeles Center
Sat 10:37:56 AM 34.7467 -116.8739 49° Northeast 522 601 33,500 1,512 Climbing Los Angeles Center
Sat 10:38:58 AM 34.8428 -116.7422 48° Northeast 524 603 34,700 1,122 Climbing Los Angeles Center
Sat 10:39:59 AM 34.9383 -116.6089 49° Northeast 524 603 35,800 1,122 Climbing Los Angeles Center
Sat 10:41:01 AM 35.0383 -116.4789 47° Northeast 526 605 37,000 585 Climbing Los Angeles Center
Sat 10:42:02 AM 35.1403 -116.3522 45° Northeast 525 604 37,000  Level Los Angeles Center
Sat 10:43:16 AM 35.2453 -116.2231 45° Northeast 534 615 37,000  Level Los Angeles Center
Sat 10:44:18 AM 35.3675 -116.0661 46° Northeast 533 613 37,000  Level Los Angeles Center
Sat 10:45:19 AM 35.4947 -115.9081 45° Northeast 542 624 37,000  Level Los Angeles Center
Sat 10:46:21 AM 35.6025 -115.7697 46° Northeast 541 623 37,000  Level Los Angeles Center
Sat 10:47:23 AM 35.7061 -115.6383 46° Northeast 537 618 37,000  Level Los Angeles Center
Sat 10:48:24 AM 35.8044 -115.4997 49° Northeast 542 624 37,000  Level Los Angeles Center
Sat 10:49:26 AM 35.8700 -115.3364 64° Northeast 539 620 37,000  Level Los Angeles Center
Sat 10:50:27 AM 35.9325 -115.1747 64° Northeast 530 610 37,000  Level Los Angeles Center
Sat 10:51:29 AM 35.9964 -115.0086 65° Northeast 537 618 37,000  Level Los Angeles Center
Sat 10:52:31 AM 36.0706 -114.8111 65° Northeast 534 615 37,000  Level Los Angeles Center
Sat 10:53:32 AM 36.1317 -114.6456 65° Northeast 533 613 37,000  Level Los Angeles Center
Sat 10:54:34 AM 36.1922 -114.4792 66° East 532 612 37,000  Level Los Angeles Center
Sat 10:55:35 AM 36.2525 -114.3133 66° East 530 610 37,000  Level Los Angeles Center
Sat 10:56:37 AM 36.3136 -114.1469 65° Northeast 531 611 37,000  Level Los Angeles Center
Sat 10:57:39 AM 36.3733 -113.9794 66° East 532 612 37,000  Level Los Angeles Center
Sat 10:58:40 AM 36.4350 -113.8125 65° Northeast 533 613 37,000  Level Los Angeles Center
Sat 10:59:42 AM 36.5058 -113.6111 66° East 532 612 37,000  Level Los Angeles Center
Sat 11:00:44 AM 36.5617 -113.4564 66° East 531 611 37,000  Level Los Angeles Center
Sat 11:01:45 AM 36.6206 -113.2883 66° East 532 612 37,000  Level Los Angeles Center
Sat 11:02:47 AM 36.6803 -113.1211 66° East 531 611 37,000  Level Los Angeles Center
Sat 11:03:49 AM 36.7508 -112.9192 66° East 532 612 37,000  Level Los Angeles Center
Sat 11:04:50 AM 36.8103 -112.7517 66° East 532 612 37,000  Level Los Angeles Center
Sat 11:05:52 AM 36.8681 -112.5828 67° East 533 613 37,000  Level Los Angeles Center
Sat 11:06:54 AM 36.9261 -112.4164 66° East 528 608 37,000  Level Los Angeles Center
Sat 11:07:55 AM 36.9847 -112.2478 66° East 531 611 37,000  Level Los Angeles Center
Sat 11:08:57 AM 37.0414 -112.0794 67° East 530 610 37,000  Level Los Angeles Center
Sat 11:09:59 AM 37.1111 -111.8761 67° East 532 612 37,000  Level Los Angeles Center
Sat 11:11:10 AM 37.1803 -111.6733 67° East 531 611 37,000  Level Denver Center
Sat 11:12:12 AM 37.2344 -111.5058 68° East 526 605 37,000  Level Denver Center
Sat 11:13:14 AM 37.2908 -111.3369 67° East 528 608 37,000  Level Denver Center
Sat 11:14:16 AM 37.3467 -111.1658 68° East 531 611 37,000  Level Denver Center
Sat 11:15:18 AM 37.4031 -110.9958 67° East 530 610 37,000  Level Denver Center
Sat 11:16:20 AM 37.4586 -110.8250 68° East 530 610 37,000  Level Denver Center
Sat 11:17:22 AM 37.5247 -110.6197 68° East 531 611 37,000  Level Denver Center
Sat 11:18:25 AM 37.5767 -110.4606 68° East 529 609 37,000  Level Denver Center
Sat 11:19:27 AM 37.6383 -110.2672 68° East 531 611 37,000  Level Denver Center
Sat 11:20:29 AM 37.6900 -110.1017 68° East 529 609 37,000  Level Denver Center
Sat 11:21:31 AM 37.7519 -109.9097 68° East 527 606 37,000  Level Denver Center
Sat 11:22:33 AM 37.8039 -109.7436 68° East 528 608 37,000  Level Denver Center
Sat 11:23:35 AM 37.8639 -109.5503 68° East 528 608 37,000  Level Denver Center
Sat 11:24:37 AM 37.9144 -109.3864 69° East 523 602 37,000  Level Denver Center
Sat 11:25:39 AM 37.9661 -109.2206 68° East 526 605 37,000  Level Denver Center
Sat 11:26:41 AM 38.0247 -109.0275 69° East 525 604 37,000  Level Denver Center
Sat 11:27:43 AM 38.0806 -108.8439 69° East 525 604 37,000  Level Denver Center
Sat 11:28:45 AM 38.1303 -108.6747 69° East 531 611 37,000  Level Denver Center
Sat 11:29:47 AM 38.1883 -108.4847 69° East 522 601 37,000  Level Denver Center
Sat 11:30:49 AM 38.2372 -108.3206 69° East 520 598 37,000  Level Denver Center
Sat 11:31:51 AM 38.2942 -108.1272 69° East 524 603 37,000  Level Denver Center
Sat 11:32:53 AM 38.3433 -107.9658 69° East 516 594 37,000  Level Denver Center
Sat 11:33:55 AM 38.3981 -107.7750 70° East 516 594 37,000  Level Denver Center
Sat 11:34:57 AM 38.4469 -107.6133 69° East 512 589 37,000  Level Denver Center
Sat 11:35:59 AM 38.5225 -107.4367 61° Northeast 508 585 37,000 -97 Level Denver Center
Sat 11:37:01 AM 38.5911 -107.2850 60° Northeast 514 592 36,800 -581 Descending Denver Center
Sat 11:38:03 AM 38.6656 -107.1192 60° Northeast 513 590 35,800 -968 Descending Denver Center
Sat 11:39:05 AM 38.7353 -106.9594 61° Northeast 505 581 34,800 -968 Descending Denver Center
Sat 11:40:07 AM 38.8031 -106.8056 60° Northeast 508 585 33,800 -968 Descending Denver Center
Sat 11:41:09 AM 38.8722 -106.6486 60° Northeast 510 587 32,800 -1,500 Descending Denver Center
Sat 11:42:11 AM 38.9486 -106.4844 59° Northeast 508 585 30,700 -2,304 Descending Denver Center
Sat 11:43:14 AM 39.0272 -106.3142 59° Northeast 498 573 28,000 -2,160 Descending Denver Center
Sat 11:44:16 AM 39.0972 -106.1589 60° Northeast 478 550 26,200 -1,742 Descending Denver Center
Sat 11:45:18 AM 39.1569 -106.0231 60° Northeast 444 511 24,400 -1,790 Descending Denver Center
Sat 11:46:20 AM 39.2153 -105.8897 61° Northeast 431 496 22,500 -1,887 Descending Denver Center
Sat 11:47:22 AM 39.2725 -105.7603 60° Northeast 419 482 20,500 -1,645 Descending Denver Center
Sat 11:48:24 AM 39.3269 -105.6378 60° Northeast 401 461 19,100 -1,355 Descending Denver Center
Sat 11:49:26 AM 39.3897 -105.4936 61° Northeast 386 444 17,700 -1,258 Descending Denver Center
Sat 11:50:28 AM 39.4006 -105.3661 84° East 357 411 16,500 -1,210 Descending Denver Center
Sat 11:51:30 AM 39.4058 -105.2422 87° East 347 399 15,200 -1,306 Descending Denver Center
Sat 11:52:32 AM 39.4119 -105.1119 86° East 337 388 13,800 -919 Descending Denver Center
Sat 11:53:34 AM 39.4172 -104.9944 87° East 328 377 13,300 -581 Descending Denver Center
Sat 11:54:36 AM 39.4328 -104.8700 81° East 330 380 12,600 -726 Descending Denver Center
Sat 11:55:38 AM 39.4947 -104.8047 39° Northeast 300 345 11,800 -871 Descending Denver Center
Sat 11:56:40 AM 39.5689 -104.7744 17° North 251 289 10,800 -823 Descending Denver Center
Sat 11:57:42 AM 39.6297 -104.7475 19° North 226 260 10,100 -823 Descending Denver Center
Sat 11:58:44 AM 39.6842 -104.7206 21° North 196 226 9,100 -968 Descending Denver Center

Login

Don't have an account? Register now (free) for customized features, flight alerts, and more!